createdAt,value
2023-05-23T00:02:10.024Z,5.85
2023-05-23T00:07:11.726Z,7.53
2023-05-23T00:12:13.304Z,5.78
2023-05-23T00:17:17.539Z,6.45
2023-05-23T00:22:19.219Z,7.05
2023-05-23T00:27:20.823Z,7.13
2023-05-23T00:32:22.520Z,6.70
2023-05-23T00:37:24.333Z,5.68
2023-05-23T00:42:26.133Z,8.63
2023-05-23T00:47:28.002Z,6.93
2023-05-23T00:52:29.660Z,6.60
2023-05-23T00:57:31.436Z,6.60
2023-05-23T01:02:36.605Z,7.68
2023-05-23T01:07:38.384Z,7.88
2023-05-23T01:12:51.078Z,8.50
2023-05-23T01:18:00.684Z,7.30
2023-05-23T01:23:48.470Z,6.80
2023-05-23T01:28:53.505Z,6.85
2023-05-23T01:33:56.937Z,7.80
2023-05-23T01:38:58.574Z,9.02
2023-05-23T01:44:00.725Z,13.75
2023-05-23T01:49:04.116Z,8.02
2023-05-23T01:54:07.650Z,5.90
2023-05-23T01:59:09.692Z,6.78
2023-05-23T02:04:11.429Z,6.90
2023-05-23T02:09:13.190Z,6.43
2023-05-23T02:14:14.779Z,9.13
2023-05-23T02:19:17.279Z,7.05
2023-05-23T02:24:21.389Z,7.80
2023-05-23T02:29:22.997Z,6.53
2023-05-23T02:34:24.839Z,6.78
2023-05-23T02:39:27.407Z,6.45
2023-05-23T02:44:30.374Z,6.25
2023-05-23T02:49:32.443Z,5.57
2023-05-23T02:54:34.405Z,6.55
2023-05-23T02:59:36.099Z,6.05
2023-05-23T03:04:38.357Z,6.97
2023-05-23T03:09:40.035Z,6.43
2023-05-23T03:14:41.731Z,6.40
2023-05-23T03:19:43.508Z,5.22
2023-05-23T03:24:45.273Z,8.32
2023-05-23T03:29:48.171Z,7.22
2023-05-23T03:34:49.861Z,5.32
2023-05-23T03:39:51.544Z,5.80
2023-05-23T03:44:54.055Z,6.15
2023-05-23T03:49:56.709Z,5.00
2023-05-23T03:54:59.970Z,6.38
2023-05-23T04:00:06.135Z,5.35
2023-05-23T04:05:18.512Z,5.03
2023-05-23T04:10:20.981Z,6.70
2023-05-23T04:15:22.998Z,6.13
2023-05-23T04:20:30.546Z,6.20
2023-05-23T04:25:32.216Z,5.95
2023-05-23T04:30:54.211Z,7.75
2023-05-23T04:35:59.514Z,6.15
2023-05-23T04:41:01.507Z,6.28
2023-05-23T04:46:33.818Z,7.07
2023-05-23T04:52:01.505Z,6.05
2023-05-23T04:57:04.490Z,7.72
2023-05-23T05:02:06.569Z,6.93
2023-05-23T05:07:08.752Z,9.98
2023-05-23T05:12:10.619Z,18.42
2023-05-23T05:17:12.938Z,17.20
2023-05-23T05:22:25.835Z,18.50
2023-05-23T05:27:27.906Z,13.82
2023-05-23T05:32:36.417Z,9.50
2023-05-23T05:37:38.130Z,11.07
2023-05-23T05:42:39.928Z,8.77
2023-05-23T05:47:41.917Z,8.00
2023-05-23T05:52:43.838Z,9.18
2023-05-23T05:57:46.818Z,7.97
2023-05-23T06:02:55.033Z,9.23
2023-05-23T06:08:26.442Z,8.35
2023-05-23T06:13:28.331Z,8.80
2023-05-23T06:18:30.522Z,10.65
2023-05-23T06:23:32.431Z,11.68
2023-05-23T06:28:34.592Z,15.70
2023-05-23T06:33:36.596Z,13.30
2023-05-23T06:38:38.396Z,12.30
2023-05-23T06:43:41.007Z,12.77
2023-05-23T06:49:14.885Z,12.77
2023-05-23T06:54:19.604Z,12.48
2023-05-23T06:59:21.490Z,12.05
2023-05-23T07:04:23.988Z,11.23
2023-05-23T07:09:25.878Z,11.52
2023-05-23T07:14:38.311Z,11.43
2023-05-23T07:19:40.626Z,10.63
2023-05-23T07:24:42.264Z,9.93
2023-05-23T07:29:45.947Z,11.38
2023-05-23T07:34:49.516Z,9.68
2023-05-23T07:39:51.353Z,9.60
2023-05-23T07:44:53.540Z,9.80
2023-05-23T07:49:55.715Z,9.80
2023-05-23T07:54:58.922Z,9.30
2023-05-23T08:00:03.238Z,9.30
2023-05-23T08:05:05.773Z,9.07
2023-05-23T08:10:08.010Z,9.27
2023-05-23T08:15:10.386Z,9.63
2023-05-23T08:20:30.460Z,9.70
2023-05-23T08:25:32.599Z,10.13
2023-05-23T08:30:35.105Z,10.30
2023-05-23T08:35:37.885Z,10.45
2023-05-23T08:40:50.638Z,9.82
2023-05-23T08:45:53.737Z,10.88
2023-05-23T08:50:55.770Z,9.80
2023-05-23T08:56:02.657Z,9.77
2023-05-23T09:01:13.566Z,8.30
2023-05-23T09:06:16.161Z,8.63
2023-05-23T09:11:18.110Z,8.43
2023-05-23T09:16:20.417Z,11.55
2023-05-23T09:21:26.248Z,12.80
2023-05-23T09:26:38.174Z,13.77
2023-05-23T09:31:40.390Z,16.05
2023-05-23T09:36:44.143Z,18.88
2023-05-23T09:41:48.788Z,19.77
2023-05-23T09:46:53.780Z,21.02
2023-05-23T09:52:00.296Z,25.45
2023-05-23T09:57:02.925Z,22.30
2023-05-23T10:02:07.470Z,22.33
2023-05-23T10:07:17.269Z,22.63
2023-05-23T10:12:39.245Z,18.23
2023-05-23T10:18:07.826Z,15.18
2023-05-23T10:23:10.016Z,12.20
2023-05-23T10:28:12.202Z,10.52
2023-05-23T10:33:15.257Z,10.38
2023-05-23T10:38:16.962Z,8.70
2023-05-23T10:43:18.554Z,8.88
2023-05-23T10:48:40.913Z,9.25
2023-05-23T10:53:44.126Z,9.40
2023-05-23T10:58:45.805Z,7.63
2023-05-23T11:03:48.645Z,7.63
2023-05-23T11:09:11.887Z,6.82
2023-05-23T11:14:14.380Z,7.30
2023-05-23T11:19:19.573Z,9.10
2023-05-23T11:24:22.647Z,9.30
2023-05-23T11:29:29.206Z,8.57
2023-05-23T11:34:31.073Z,7.65
2023-05-23T11:39:32.761Z,7.38
2023-05-23T11:44:34.448Z,7.03
2023-05-23T11:49:39.890Z,7.07
2023-05-23T11:54:44.883Z,7.65
2023-05-23T11:59:46.543Z,7.32
2023-05-23T12:04:51.175Z,9.15
2023-05-23T12:09:56.689Z,7.18
2023-05-23T12:14:59.442Z,8.13
2023-05-23T12:20:01.460Z,8.25
2023-05-23T12:25:05.009Z,8.18
2023-05-23T12:30:14.254Z,10.05
2023-05-23T12:35:16.547Z,8.55
2023-05-23T12:40:19.339Z,12.75
2023-05-23T12:45:32.030Z,9.52
2023-05-23T12:50:33.729Z,10.18
2023-05-23T12:55:35.530Z,6.30
2023-05-23T13:00:37.816Z,5.25
2023-05-23T13:05:39.961Z,4.15
2023-05-23T13:10:42.085Z,4.22
2023-05-23T13:15:43.973Z,4.78
2023-05-23T13:20:46.497Z,4.28
2023-05-23T13:25:50.518Z,4.43
2023-05-23T13:30:52.166Z,3.83
2023-05-23T13:35:54.274Z,4.55
2023-05-23T13:40:55.988Z,5.00
2023-05-23T13:45:57.705Z,5.00
2023-05-23T13:50:59.590Z,5.22
2023-05-23T13:56:01.691Z,4.97
2023-05-23T14:01:03.319Z,4.47
2023-05-23T14:06:05.237Z,3.95
2023-05-23T14:11:06.895Z,3.92
2023-05-23T14:16:08.740Z,4.13
2023-05-23T14:21:10.643Z,3.65
2023-05-23T14:26:12.350Z,3.60
2023-05-23T14:31:13.977Z,2.90
2023-05-23T14:36:16.324Z,2.92
2023-05-23T14:41:18.689Z,2.40
2023-05-23T14:46:20.406Z,4.90
2023-05-23T14:51:41.811Z,2.95
2023-05-23T14:56:43.851Z,4.13
2023-05-23T15:01:45.722Z,5.18
2023-05-23T15:06:47.496Z,3.45
2023-05-23T15:11:49.596Z,4.10
2023-05-23T15:16:51.667Z,3.55
2023-05-23T15:21:53.317Z,3.55
2023-05-23T15:26:56.812Z,3.78
2023-05-23T15:32:01.962Z,3.53
2023-05-23T15:37:03.904Z,3.83
2023-05-23T15:42:05.954Z,3.90
2023-05-23T15:47:07.613Z,3.92
2023-05-23T15:52:09.288Z,3.25
2023-05-23T15:57:11.195Z,5.10
2023-05-23T16:02:12.909Z,2.70
2023-05-23T16:07:16.409Z,2.50
2023-05-23T16:12:19.940Z,3.67
2023-05-23T16:17:21.586Z,2.92
2023-05-23T16:22:23.702Z,2.50
2023-05-23T16:27:25.382Z,2.80
2023-05-23T16:32:30.879Z,3.80
2023-05-23T16:37:32.610Z,2.90
2023-05-23T16:42:34.313Z,2.80
2023-05-23T16:47:36.328Z,3.15
2023-05-23T16:52:39.588Z,2.95
2023-05-23T16:57:41.240Z,2.53
2023-05-23T17:02:42.981Z,2.60
2023-05-23T17:07:44.652Z,2.58
2023-05-23T17:12:46.366Z,2.75
2023-05-23T17:17:48.187Z,2.60
2023-05-23T17:22:51.799Z,2.70
2023-05-23T17:27:53.513Z,2.20
2023-05-23T17:32:55.345Z,2.20
2023-05-23T17:38:00.849Z,3.17
2023-05-23T17:43:02.554Z,2.45
2023-05-23T17:48:04.402Z,2.50
2023-05-23T17:53:06.299Z,1.88
2023-05-23T17:58:07.995Z,1.90
2023-05-23T18:03:09.823Z,1.90
2023-05-23T18:08:11.492Z,1.92
2023-05-23T18:13:16.129Z,2.50
2023-05-23T18:18:18.246Z,1.77
2023-05-23T18:23:19.990Z,1.88
2023-05-23T18:28:21.799Z,2.40
2023-05-23T18:33:23.450Z,2.10
2023-05-23T18:38:25.518Z,2.47
2023-05-23T18:43:27.194Z,3.47
2023-05-23T18:48:29.295Z,2.83
2023-05-23T18:53:31.248Z,2.70
2023-05-23T18:58:32.952Z,3.08
2023-05-23T19:03:36.834Z,4.05
2023-05-23T19:08:38.642Z,4.72
2023-05-23T19:13:40.326Z,7.53
2023-05-23T19:18:41.942Z,8.05
2023-05-23T19:23:43.566Z,8.18
2023-05-23T19:28:45.261Z,7.63
2023-05-23T19:33:46.955Z,8.32
2023-05-23T19:38:48.599Z,10.73
2023-05-23T19:43:50.470Z,12.45
2023-05-23T19:48:52.208Z,10.68
2023-05-23T19:53:54.614Z,11.25
2023-05-23T19:58:56.327Z,11.07
2023-05-23T20:03:58.040Z,12.40
2023-05-23T20:08:59.874Z,10.30
2023-05-23T20:14:01.569Z,11.57
2023-05-23T20:19:03.250Z,9.48
2023-05-23T20:24:05.155Z,9.90
2023-05-23T20:29:06.909Z,9.57
2023-05-23T20:34:08.587Z,12.45
2023-05-23T20:39:10.215Z,12.32
2023-05-23T20:44:12.197Z,13.80
2023-05-23T20:49:15.463Z,9.48
2023-05-23T20:54:17.139Z,11.18
2023-05-23T20:59:18.833Z,7.57
2023-05-23T21:04:20.600Z,9.90
2023-05-23T21:09:22.311Z,11.60
2023-05-23T21:14:24.081Z,8.45
2023-05-23T21:19:25.929Z,10.32
2023-05-23T21:24:27.945Z,10.95
2023-05-23T21:29:29.613Z,8.55
2023-05-23T21:34:31.309Z,9.25
2023-05-23T21:39:47.135Z,11.55
2023-05-23T21:44:52.687Z,8.35
2023-05-23T21:49:54.368Z,9.45
2023-05-23T21:54:56.221Z,8.45
2023-05-23T21:59:57.836Z,12.45
2023-05-23T22:04:59.521Z,8.40
2023-05-23T22:10:01.448Z,7.22
2023-05-23T22:15:03.573Z,8.95
2023-05-23T22:20:05.693Z,14.57
2023-05-23T22:25:08.016Z,10.48
2023-05-23T22:30:10.148Z,9.32
2023-05-23T22:35:11.808Z,7.82
2023-05-23T22:40:13.444Z,12.27
2023-05-23T22:45:15.379Z,9.57
2023-05-23T22:50:17.724Z,10.07
2023-05-23T22:55:19.372Z,11.38
2023-05-23T23:00:21.513Z,10.35
2023-05-23T23:05:23.226Z,7.25
2023-05-23T23:10:25.164Z,9.30
2023-05-23T23:15:26.819Z,6.97
2023-05-23T23:20:28.561Z,10.27
2023-05-23T23:25:30.390Z,7.88
2023-05-23T23:30:32.064Z,11.18
2023-05-23T23:35:33.718Z,9.98
2023-05-23T23:40:35.427Z,14.27
2023-05-23T23:45:37.091Z,10.27
2023-05-23T23:50:38.825Z,14.02
2023-05-23T23:55:40.530Z,7.38
